QFA72 WSSS-YPPH
Flight info
| Callsign | QFA72 |
|---|---|
| Flight time | N/A |
| Altitude | 31000 |
| Route | ANITO8B ANITO B470 PKP L764 LEMUS/N0478F330 L764 LAMOB B469 CAR/N0468F350 B469 TOPIR/N0462F360 L514 AVPAL Q38 JULIM |
| Aircraft | B738/M-SDE2E3FGHIRWXY/LB1 |
Departure
| Time | 2026-05-06 03:43 |
|---|---|
| Airport | Singapore Changi Airport (WSSS) |
Arrival
| Time | N/A |
|---|---|
| Airport | Perth International Airport (YPPH) |
| Time | Latitude | Longitude | Altitude | Speed | Heading |
|---|---|---|---|---|---|
| 2026-05-06 03:05 | 1.36485 | 103.99337 | 29 ft | 0 kts | 142° |
| 2026-05-06 03:35 | 1.36498 | 103.99327 | 29 ft | 4 kts | 155° |
| 2026-05-06 03:35 | 1.36524 | 103.99321 | 29 ft | 4 kts | 168° |
| 2026-05-06 03:36 | 1.36545 | 103.99310 | 29 ft | 4 kts | 129° |
| 2026-05-06 03:36 | 1.36548 | 103.99293 | 29 ft | 4 kts | 54° |
| 2026-05-06 03:36 | 1.36535 | 103.99276 | 29 ft | 4 kts | 53° |
| 2026-05-06 03:36 | 1.36531 | 103.99271 | 29 ft | 1 kts | 53° |
| 2026-05-06 03:38 | 1.36532 | 103.99272 | 29 ft | 1 kts | 53° |
| 2026-05-06 03:38 | 1.36539 | 103.99282 | 28 ft | 3 kts | 52° |
| 2026-05-06 03:39 | 1.36556 | 103.99304 | 29 ft | 6 kts | 52° |
| 2026-05-06 03:39 | 1.36585 | 103.99343 | 29 ft | 7 kts | 61° |
| 2026-05-06 03:39 | 1.36579 | 103.99402 | 29 ft | 11 kts | 108° |
| 2026-05-06 03:39 | 1.36546 | 103.99478 | 29 ft | 12 kts | 112° |
| 2026-05-06 03:40 | 1.36515 | 103.99558 | 29 ft | 13 kts | 111° |
| 2026-05-06 03:40 | 1.36480 | 103.99645 | 29 ft | 13 kts | 116° |
| 2026-05-06 03:40 | 1.36438 | 103.99727 | 29 ft | 13 kts | 117° |
| 2026-05-06 03:40 | 1.36403 | 103.99810 | 28 ft | 13 kts | 111° |
| 2026-05-06 03:41 | 1.36347 | 103.99872 | 29 ft | 13 kts | 166° |
| 2026-05-06 03:41 | 1.36262 | 103.99885 | 29 ft | 12 kts | 172° |
| 2026-05-06 03:41 | 1.36179 | 103.99889 | 29 ft | 12 kts | 194° |
| 2026-05-06 03:41 | 1.36088 | 103.99851 | 29 ft | 23 kts | 204° |
| 2026-05-06 03:42 | 1.35719 | 103.99696 | 29 ft | 91 kts | 202° |
| 2026-05-06 03:42 | 1.34939 | 103.99367 | 29 ft | 150 kts | 202° |
| 2026-05-06 03:42 | 1.33816 | 103.98898 | 86 ft | 195 kts | 202° |
| 2026-05-06 03:42 | 1.32515 | 103.98349 | 574 ft | 210 kts | 204° |
| 2026-05-06 03:43 | 1.31135 | 103.97747 | 1108 ft | 216 kts | 204° |
| 2026-05-06 03:43 | 1.29780 | 103.97132 | 1766 ft | 216 kts | 204° |
| 2026-05-06 03:43 | 1.28393 | 103.96539 | 2160 ft | 225 kts | 202° |
| 2026-05-06 03:43 | 1.27106 | 103.96012 | 2417 ft | 234 kts | 202° |
| 2026-05-06 03:44 | 1.25578 | 103.95388 | 2827 ft | 240 kts | 202° |
| 2026-05-06 03:44 | 1.24028 | 103.94752 | 3328 ft | 241 kts | 200° |
| 2026-05-06 03:44 | 1.22369 | 103.94542 | 3784 ft | 243 kts | 174° |
| 2026-05-06 03:44 | 1.20693 | 103.94869 | 4264 ft | 248 kts | 166° |
| 2026-05-06 03:45 | 1.19020 | 103.95308 | 4840 ft | 249 kts | 166° |
| 2026-05-06 03:45 | 1.17331 | 103.95752 | 5421 ft | 252 kts | 166° |
| 2026-05-06 03:45 | 1.15639 | 103.96184 | 5876 ft | 254 kts | 166° |
| 2026-05-06 03:45 | 1.13847 | 103.96633 | 5992 ft | 275 kts | 166° |
| 2026-05-06 03:46 | 1.11984 | 103.97095 | 6012 ft | 281 kts | 167° |
| 2026-05-06 03:46 | 1.10180 | 103.97831 | 6401 ft | 283 kts | 145° |
| 2026-05-06 03:46 | 1.08637 | 103.99029 | 7156 ft | 279 kts | 142° |
| 2026-05-06 03:46 | 1.07103 | 104.00227 | 7817 ft | 281 kts | 142° |
| 2026-05-06 03:47 | 1.05543 | 104.01435 | 8405 ft | 285 kts | 142° |
| 2026-05-06 03:47 | 1.03966 | 104.02651 | 9039 ft | 287 kts | 142° |
| 2026-05-06 03:47 | 1.02594 | 104.04102 | 9627 ft | 290 kts | 119° |
| 2026-05-06 03:47 | 1.01758 | 104.05944 | 10206 ft | 293 kts | 112° |
| 2026-05-06 03:48 | 1.00961 | 104.07877 | 10405 ft | 311 kts | 112° |
| 2026-05-06 03:48 | 1.00104 | 104.09935 | 10541 ft | 329 kts | 113° |
| 2026-05-06 03:48 | 0.99205 | 104.12073 | 10674 ft | 346 kts | 113° |
| 2026-05-06 03:48 | 0.98248 | 104.14342 | 10789 ft | 362 kts | 113° |
| 2026-05-06 03:49 | 0.97252 | 104.16709 | 10888 ft | 377 kts | 113° |
| 2026-05-06 03:49 | 0.96221 | 104.19155 | 11143 ft | 385 kts | 113° |
| 2026-05-06 03:49 | 0.95177 | 104.21631 | 11596 ft | 387 kts | 112° |
| 2026-05-06 03:49 | 0.94021 | 104.24065 | 12079 ft | 388 kts | 119° |
| 2026-05-06 03:50 | 0.92619 | 104.26377 | 12542 ft | 390 kts | 122° |
| 2026-05-06 03:50 | 0.91130 | 104.28655 | 12977 ft | 393 kts | 123° |
| 2026-05-06 03:50 | 0.89627 | 104.30951 | 13408 ft | 395 kts | 122° |
| 2026-05-06 03:50 | 0.88139 | 104.33267 | 13815 ft | 397 kts | 122° |
| 2026-05-06 03:51 | 0.86662 | 104.35611 | 14187 ft | 399 kts | 121° |
| 2026-05-06 03:51 | 0.85189 | 104.37973 | 14554 ft | 401 kts | 121° |
| 2026-05-06 03:51 | 0.83733 | 104.40316 | 14902 ft | 403 kts | 121° |
| 2026-05-06 03:51 | 0.82103 | 104.42601 | 15220 ft | 406 kts | 133° |
| 2026-05-06 03:52 | 0.79860 | 104.44334 | 15559 ft | 409 kts | 147° |
| 2026-05-06 03:52 | 0.77419 | 104.45812 | 15908 ft | 411 kts | 148° |
| 2026-05-06 03:52 | 0.74949 | 104.47283 | 16210 ft | 414 kts | 148° |
| 2026-05-06 03:52 | 0.72469 | 104.48764 | 16496 ft | 417 kts | 148° |
| 2026-05-06 03:53 | 0.69977 | 104.50267 | 16817 ft | 419 kts | 147° |
| 2026-05-06 03:53 | 0.67482 | 104.51784 | 17132 ft | 420 kts | 147° |
| 2026-05-06 03:53 | 0.64980 | 104.53313 | 17427 ft | 422 kts | 147° |
| 2026-05-06 03:53 | 0.62494 | 104.54837 | 17715 ft | 424 kts | 147° |
| 2026-05-06 03:54 | 0.59973 | 104.56384 | 17986 ft | 427 kts | 147° |
| 2026-05-06 03:54 | 0.57438 | 104.57939 | 18246 ft | 429 kts | 147° |
| 2026-05-06 03:54 | 0.54890 | 104.59502 | 18486 ft | 430 kts | 147° |
| 2026-05-06 03:54 | 0.52333 | 104.61070 | 18717 ft | 432 kts | 147° |
| 2026-05-06 03:55 | 0.49760 | 104.62646 | 18957 ft | 433 kts | 147° |
| 2026-05-06 03:55 | 0.47132 | 104.64146 | 19179 ft | 436 kts | 153° |
| 2026-05-06 03:55 | 0.44288 | 104.65250 | 19386 ft | 439 kts | 162° |
| 2026-05-06 03:55 | 0.41377 | 104.66096 | 19623 ft | 441 kts | 162° |
| 2026-05-06 03:56 | 0.38419 | 104.66929 | 19836 ft | 442 kts | 163° |
| 2026-05-06 03:56 | 0.35441 | 104.67773 | 20037 ft | 444 kts | 162° |
| 2026-05-06 03:56 | 0.32470 | 104.68631 | 20240 ft | 446 kts | 162° |
| 2026-05-06 03:56 | 0.30492 | 104.69209 | 20375 ft | 447 kts | 162° |
| 2026-05-06 03:57 | 0.27506 | 104.70090 | 20584 ft | 448 kts | 162° |
| 2026-05-06 03:57 | 0.24517 | 104.70976 | 20778 ft | 449 kts | 162° |
| 2026-05-06 03:57 | 0.21513 | 104.71868 | 20970 ft | 451 kts | 162° |
| 2026-05-06 03:57 | 0.18499 | 104.72762 | 21154 ft | 452 kts | 162° |
| 2026-05-06 03:58 | 0.15473 | 104.73658 | 21341 ft | 454 kts | 162° |
| 2026-05-06 03:58 | 0.12440 | 104.74557 | 21523 ft | 455 kts | 162° |
| 2026-05-06 03:58 | 0.09402 | 104.75461 | 21700 ft | 456 kts | 162° |
| 2026-05-06 03:58 | 0.06349 | 104.76372 | 21879 ft | 458 kts | 162° |
| 2026-05-06 03:59 | 0.03334 | 104.77271 | 22048 ft | 459 kts | 162° |
| 2026-05-06 03:59 | 0.00266 | 104.78186 | 22220 ft | 460 kts | 162° |
| 2026-05-06 03:59 | -0.02808 | 104.79102 | 22377 ft | 461 kts | 162° |
| 2026-05-06 03:59 | -0.05886 | 104.80020 | 22541 ft | 462 kts | 162° |
| 2026-05-06 04:00 | -0.08979 | 104.80941 | 22694 ft | 464 kts | 162° |
| 2026-05-06 04:00 | -0.12076 | 104.81864 | 22838 ft | 465 kts | 162° |
| 2026-05-06 04:00 | -0.15185 | 104.82791 | 22922 ft | 468 kts | 162° |
| 2026-05-06 04:00 | -0.18315 | 104.83724 | 23021 ft | 470 kts | 162° |
| 2026-05-06 04:01 | -0.21451 | 104.84658 | 23166 ft | 470 kts | 162° |
| 2026-05-06 04:01 | -0.24592 | 104.85594 | 23317 ft | 471 kts | 162° |
| 2026-05-06 04:01 | -0.27697 | 104.86644 | 23447 ft | 471 kts | 155° |
| 2026-05-06 04:01 | -0.30615 | 104.88118 | 23544 ft | 470 kts | 146° |
| 2026-05-06 04:02 | -0.33300 | 104.89917 | 23664 ft | 470 kts | 144° |
| 2026-05-06 04:02 | -0.35984 | 104.91771 | 23772 ft | 470 kts | 144° |
| 2026-05-06 04:02 | -0.38678 | 104.93639 | 23866 ft | 471 kts | 144° |
| 2026-05-06 04:02 | -0.41375 | 104.95500 | 23972 ft | 472 kts | 144° |
| 2026-05-06 04:03 | -0.44095 | 104.97364 | 24083 ft | 472 kts | 144° |
| 2026-05-06 04:03 | -0.46817 | 104.99218 | 24192 ft | 473 kts | 144° |
| 2026-05-06 04:03 | -0.49542 | 105.01066 | 24294 ft | 474 kts | 144° |
| 2026-05-06 04:03 | -0.52288 | 105.02897 | 24399 ft | 475 kts | 147° |
| 2026-05-06 04:04 | -0.55245 | 105.04393 | 24493 ft | 477 kts | 158° |
| 2026-05-06 04:04 | -0.58350 | 105.05448 | 24617 ft | 478 kts | 161° |
| 2026-05-06 04:04 | -0.61522 | 105.06457 | 24718 ft | 479 kts | 161° |
| 2026-05-06 04:04 | -0.64691 | 105.07456 | 24800 ft | 480 kts | 161° |
| 2026-05-06 04:05 | -0.67878 | 105.08470 | 24887 ft | 480 kts | 161° |
| 2026-05-06 04:05 | -0.71062 | 105.09495 | 24985 ft | 481 kts | 160° |
| 2026-05-06 04:05 | -0.74249 | 105.10532 | 25078 ft | 481 kts | 160° |
| 2026-05-06 04:05 | -0.77433 | 105.11577 | 25169 ft | 482 kts | 160° |
| 2026-05-06 04:06 | -0.80582 | 105.12615 | 25262 ft | 482 kts | 160° |
| 2026-05-06 04:06 | -0.83778 | 105.13672 | 25349 ft | 483 kts | 160° |
| 2026-05-06 04:06 | -0.86974 | 105.14729 | 25433 ft | 484 kts | 160° |
| 2026-05-06 04:06 | -0.90176 | 105.15787 | 25516 ft | 484 kts | 160° |
| 2026-05-06 04:07 | -0.93386 | 105.16848 | 25599 ft | 485 kts | 160° |
| 2026-05-06 04:07 | -0.96593 | 105.17908 | 25681 ft | 486 kts | 160° |
| 2026-05-06 04:07 | -0.99805 | 105.18968 | 25752 ft | 486 kts | 160° |
| 2026-05-06 04:07 | -1.03024 | 105.20031 | 25835 ft | 487 kts | 160° |
| 2026-05-06 04:08 | -1.06203 | 105.21081 | 25911 ft | 487 kts | 160° |
| 2026-05-06 04:08 | -1.09468 | 105.22158 | 25988 ft | 488 kts | 160° |
| 2026-05-06 04:08 | -1.12654 | 105.23210 | 26063 ft | 488 kts | 160° |
| 2026-05-06 04:08 | -1.15883 | 105.24276 | 26136 ft | 489 kts | 160° |
| 2026-05-06 04:09 | -1.19118 | 105.25345 | 26207 ft | 490 kts | 160° |
| 2026-05-06 04:09 | -1.22359 | 105.26415 | 26277 ft | 490 kts | 160° |
| 2026-05-06 04:09 | -1.25606 | 105.27487 | 26357 ft | 490 kts | 160° |
| 2026-05-06 04:09 | -1.28845 | 105.28556 | 26469 ft | 490 kts | 160° |
| 2026-05-06 04:10 | -1.32077 | 105.29624 | 26589 ft | 489 kts | 160° |
| 2026-05-06 04:10 | -1.35312 | 105.30691 | 26694 ft | 489 kts | 160° |
| 2026-05-06 04:10 | -1.38544 | 105.31759 | 26786 ft | 489 kts | 160° |
| 2026-05-06 04:10 | -1.41779 | 105.32827 | 26885 ft | 489 kts | 160° |
| 2026-05-06 04:11 | -1.45006 | 105.33893 | 27005 ft | 489 kts | 160° |
| 2026-05-06 04:11 | -1.48236 | 105.34960 | 27125 ft | 488 kts | 160° |
| 2026-05-06 04:11 | -1.51470 | 105.36028 | 27248 ft | 488 kts | 160° |
| 2026-05-06 04:11 | -1.54651 | 105.37079 | 27351 ft | 488 kts | 160° |
| 2026-05-06 04:12 | -1.57875 | 105.38143 | 27474 ft | 488 kts | 160° |
| 2026-05-06 04:12 | -1.61097 | 105.39208 | 27598 ft | 487 kts | 160° |
| 2026-05-06 04:12 | -1.64322 | 105.40273 | 27730 ft | 487 kts | 160° |
| 2026-05-06 04:12 | -1.67543 | 105.41337 | 27854 ft | 487 kts | 160° |
| 2026-05-06 04:13 | -1.70757 | 105.42399 | 27985 ft | 487 kts | 160° |
| 2026-05-06 04:13 | -1.73983 | 105.43464 | 28125 ft | 486 kts | 160° |
| 2026-05-06 04:13 | -1.77196 | 105.44526 | 28267 ft | 486 kts | 160° |
| 2026-05-06 04:13 | -1.80408 | 105.45587 | 28395 ft | 486 kts | 160° |
| 2026-05-06 04:14 | -1.83579 | 105.46635 | 28524 ft | 486 kts | 160° |
| 2026-05-06 04:14 | -1.86788 | 105.47695 | 28674 ft | 486 kts | 160° |